createdAt,value
2024-05-09T00:04:54.154Z,8.90
2024-05-09T00:09:57.126Z,8.70
2024-05-09T00:15:00.125Z,8.64
2024-05-09T00:20:10.914Z,8.76
2024-05-09T00:25:17.386Z,8.98
2024-05-09T00:30:28.010Z,9.12
2024-05-09T00:35:36.713Z,9.02
2024-05-09T00:40:42.343Z,8.94
2024-05-09T00:45:47.550Z,8.89
2024-05-09T00:50:51.637Z,8.81
2024-05-09T00:55:55.475Z,8.72
2024-05-09T01:01:01.641Z,8.74
2024-05-09T01:06:06.543Z,8.81
2024-05-09T01:11:09.955Z,8.87
2024-05-09T01:16:14.416Z,8.93
2024-05-09T01:21:17.842Z,8.98
2024-05-09T01:26:21.611Z,9.07
2024-05-09T01:31:26.582Z,9.20
2024-05-09T01:36:30.323Z,9.25
2024-05-09T01:41:33.550Z,9.41
2024-05-09T01:46:36.569Z,9.50
2024-05-09T01:51:40.530Z,9.50
2024-05-09T01:56:43.731Z,9.48
2024-05-09T02:01:56.602Z,9.52
2024-05-09T02:07:01.726Z,9.54
2024-05-09T02:12:05.104Z,9.63
2024-05-09T02:17:09.456Z,9.66
2024-05-09T02:22:13.790Z,9.76
2024-05-09T02:27:16.770Z,9.80
2024-05-09T02:32:20.938Z,9.85
2024-05-09T02:37:24.566Z,9.96
2024-05-09T02:42:27.477Z,10.04
2024-05-09T02:47:30.657Z,10.11
2024-05-09T02:52:34.548Z,10.17
2024-05-09T02:57:37.528Z,10.24
2024-05-09T03:02:45.270Z,10.43
2024-05-09T03:07:49.337Z,10.48
2024-05-09T03:12:53.434Z,10.49
2024-05-09T03:17:56.544Z,10.64
2024-05-09T03:23:01.889Z,10.70
2024-05-09T03:28:05.333Z,10.74
2024-05-09T03:33:20.450Z,10.83
2024-05-09T03:38:24.370Z,10.88
2024-05-09T03:43:27.816Z,10.92
2024-05-09T03:48:35.690Z,11.03
2024-05-09T03:53:40.959Z,11.16
2024-05-09T03:58:43.965Z,11.19
2024-05-09T04:03:47.712Z,11.35
2024-05-09T04:08:52.815Z,11.40
2024-05-09T04:13:56.302Z,11.42
2024-05-09T04:18:59.843Z,11.62
2024-05-09T04:24:04.603Z,11.66
2024-05-09T04:29:08.403Z,11.69
2024-05-09T04:34:12.404Z,11.66
2024-05-09T04:39:15.883Z,11.79
2024-05-09T04:44:18.852Z,11.89
2024-05-09T04:49:22.256Z,11.97
2024-05-09T04:54:33.840Z,12.02
2024-05-09T04:59:39.721Z,12.15
2024-05-09T05:04:43.871Z,12.16
2024-05-09T05:09:46.974Z,12.20
2024-05-09T05:14:50.038Z,12.26
2024-05-09T05:19:55.688Z,12.30
2024-05-09T05:24:58.870Z,12.40
2024-05-09T05:30:01.824Z,12.50
2024-05-09T05:35:07.452Z,12.54
2024-05-09T05:40:14.629Z,12.56
2024-05-09T05:45:21.055Z,12.80
2024-05-09T05:50:32.431Z,13.07
2024-05-09T05:55:42.336Z,13.49
2024-05-09T06:00:45.622Z,13.76
2024-05-09T06:05:48.852Z,14.16
2024-05-09T06:10:52.639Z,14.65
2024-05-09T06:15:55.591Z,14.50
2024-05-09T06:20:59.557Z,14.27
2024-05-09T06:26:03.146Z,14.10
2024-05-09T06:31:07.127Z,14.01
2024-05-09T06:36:10.455Z,14.05
2024-05-09T06:41:13.552Z,14.16
2024-05-09T06:46:16.399Z,14.13
2024-05-09T06:51:19.487Z,14.26
2024-05-09T06:56:23.940Z,14.33
2024-05-09T07:01:26.950Z,14.42
2024-05-09T07:06:30.467Z,14.60
2024-05-09T07:11:34.183Z,14.73
2024-05-09T07:16:37.166Z,14.77
2024-05-09T07:21:40.534Z,14.89
2024-05-09T07:26:43.633Z,15.08
2024-05-09T07:31:46.640Z,15.16
2024-05-09T07:36:50.153Z,15.29
2024-05-09T07:41:53.121Z,15.37
2024-05-09T07:48:14.001Z,15.75
2024-05-09T07:57:25.276Z,16.41
2024-05-09T08:02:29.245Z,16.99
2024-05-09T08:07:35.630Z,17.20
2024-05-09T08:12:38.662Z,17.22
2024-05-09T08:17:41.625Z,17.09
2024-05-09T08:22:45.041Z,17.20
2024-05-09T08:27:48.479Z,17.56
2024-05-09T08:32:51.901Z,17.96
2024-05-09T08:37:55.494Z,18.25
2024-05-09T08:42:58.716Z,18.47
2024-05-09T08:48:06.438Z,18.61
2024-05-09T08:53:10.583Z,18.86
2024-05-09T08:58:16.793Z,18.93
2024-05-09T09:03:23.244Z,19.09
2024-05-09T09:08:27.654Z,19.33
2024-05-09T09:13:30.857Z,19.59
2024-05-09T09:18:34.826Z,19.44
2024-05-09T09:23:40.338Z,19.06
2024-05-09T09:28:45.298Z,18.79
2024-05-09T09:33:48.919Z,19.01
2024-05-09T09:38:52.879Z,19.27
2024-05-09T09:43:57.817Z,19.31
2024-05-09T09:49:01.065Z,19.01
2024-05-09T09:54:05.574Z,18.72
2024-05-09T09:59:09.010Z,18.47
2024-05-09T10:04:13.482Z,18.48
2024-05-09T10:09:18.710Z,18.42
2024-05-09T10:14:22.466Z,18.38
2024-05-09T10:19:28.861Z,18.65
2024-05-09T10:24:51.987Z,18.59
2024-05-09T10:29:59.841Z,18.44
2024-05-09T10:35:07.648Z,18.39
2024-05-09T10:40:23.353Z,18.31
2024-05-09T10:45:32.375Z,18.35
2024-05-09T10:50:36.145Z,18.30
2024-05-09T10:55:39.844Z,18.18
2024-05-09T11:00:43.174Z,18.08
2024-05-09T11:05:48.394Z,18.01
2024-05-09T11:10:54.033Z,17.98
2024-05-09T11:15:57.906Z,17.94
2024-05-09T11:21:01.532Z,17.86
2024-05-09T11:26:04.798Z,17.64
2024-05-09T11:31:11.157Z,18.02
2024-05-09T11:36:15.053Z,18.60
2024-05-09T11:41:21.361Z,18.95
2024-05-09T11:46:25.375Z,18.96
2024-05-09T11:51:29.828Z,18.84
2024-05-09T11:56:33.855Z,18.72
2024-05-09T12:01:36.997Z,18.56
2024-05-09T12:06:41.472Z,18.43
2024-05-09T12:11:44.801Z,18.27
2024-05-09T12:16:48.088Z,18.18
2024-05-09T12:21:51.777Z,18.14
2024-05-09T12:26:56.175Z,18.21
2024-05-09T12:31:59.625Z,18.67
2024-05-09T12:37:03.561Z,19.26
2024-05-09T12:42:09.771Z,18.93
2024-05-09T12:47:15.302Z,18.48
2024-05-09T12:52:18.969Z,18.01
2024-05-09T12:57:23.726Z,17.61
2024-05-09T13:02:27.428Z,17.51
2024-05-09T13:07:32.590Z,18.00
2024-05-09T13:12:36.794Z,17.90
2024-05-09T13:17:40.327Z,17.51
2024-05-09T13:22:45.576Z,17.03
2024-05-09T13:27:49.419Z,16.62
2024-05-09T13:32:54.885Z,16.26
2024-05-09T13:38:00.136Z,15.98
2024-05-09T13:43:06.130Z,15.72
2024-05-09T13:48:11.188Z,15.49
2024-05-09T13:53:15.629Z,15.20
2024-05-09T13:58:19.440Z,14.98
2024-05-09T14:03:23.586Z,14.79
2024-05-09T14:08:28.251Z,14.62
2024-05-09T14:13:31.350Z,14.46
2024-05-09T14:18:35.535Z,14.34
2024-05-09T14:23:39.394Z,14.17
2024-05-09T14:28:42.877Z,13.93
2024-05-09T14:33:46.848Z,13.74
2024-05-09T14:38:50.894Z,13.54
2024-05-09T14:43:54.915Z,13.48
2024-05-09T14:49:00.572Z,13.42
2024-05-09T14:54:05.026Z,13.33
2024-05-09T14:59:08.945Z,13.27
2024-05-09T15:04:14.068Z,13.17
2024-05-09T15:09:17.857Z,13.01
2024-05-09T15:14:20.926Z,12.90
2024-05-09T15:19:24.206Z,12.84
2024-05-09T15:24:28.418Z,12.65
2024-05-09T15:29:32.485Z,12.54
2024-05-09T15:34:35.541Z,12.48
2024-05-09T15:39:39.897Z,12.50
2024-05-09T15:44:42.928Z,12.50
2024-05-09T15:49:48.042Z,12.53
2024-05-09T15:54:51.058Z,12.62
2024-05-09T15:59:54.583Z,12.68
2024-05-09T16:04:58.836Z,12.66
2024-05-09T16:10:02.490Z,12.72
2024-05-09T16:15:07.110Z,12.72
2024-05-09T16:20:15.151Z,12.69
2024-05-09T16:25:21.967Z,12.69
2024-05-09T16:30:31.732Z,12.62
2024-05-09T16:35:40.023Z,12.52
2024-05-09T16:40:42.974Z,12.46
2024-05-09T16:45:46.006Z,12.37
2024-05-09T16:50:50.532Z,12.26
2024-05-09T16:55:54.529Z,12.23
2024-05-09T17:00:58.601Z,12.14
2024-05-09T17:06:04.596Z,12.02
2024-05-09T17:11:07.646Z,11.89
2024-05-09T17:16:11.238Z,11.71
2024-05-09T17:21:15.703Z,11.52
2024-05-09T17:26:18.742Z,11.47
2024-05-09T17:31:21.924Z,11.52
2024-05-09T17:36:25.875Z,11.48
2024-05-09T17:41:28.793Z,11.37
2024-05-09T17:46:31.704Z,11.27
2024-05-09T17:51:36.348Z,11.13
2024-05-09T17:56:39.334Z,11.02
2024-05-09T18:01:42.511Z,11.02
2024-05-09T18:06:47.443Z,11.10
2024-05-09T18:11:51.115Z,11.10
2024-05-09T18:16:54.311Z,11.13
2024-05-09T18:21:57.598Z,11.10
2024-05-09T18:27:00.628Z,11.13
2024-05-09T18:32:04.158Z,11.13
2024-05-09T18:37:07.493Z,11.10
2024-05-09T18:42:10.533Z,11.02
2024-05-09T18:47:15.977Z,10.93
2024-05-09T18:52:21.850Z,10.88
2024-05-09T18:57:25.675Z,10.80
2024-05-09T19:02:29.388Z,10.66
2024-05-09T19:07:33.295Z,10.66
2024-05-09T19:12:36.476Z,10.65
2024-05-09T19:17:39.450Z,10.64
2024-05-09T19:22:42.449Z,10.68
2024-05-09T19:27:46.313Z,10.70
2024-05-09T19:32:49.350Z,10.68
2024-05-09T19:37:53.600Z,10.76
2024-05-09T19:42:56.761Z,10.80
2024-05-09T19:47:59.816Z,10.74
2024-05-09T19:53:03.322Z,10.60
2024-05-09T19:58:07.902Z,10.41
2024-05-09T20:03:12.739Z,10.25
2024-05-09T20:08:16.912Z,10.19
2024-05-09T20:13:20.118Z,10.01
2024-05-09T20:18:23.361Z,9.97
2024-05-09T20:23:26.831Z,10.07
2024-05-09T20:28:30.482Z,10.08
2024-05-09T20:33:33.715Z,10.11
2024-05-09T20:38:37.633Z,10.06
2024-05-09T20:43:40.585Z,10.07
2024-05-09T20:48:43.784Z,10.15
2024-05-09T20:53:47.619Z,10.27
2024-05-09T20:58:50.694Z,10.36
2024-05-09T21:03:53.670Z,10.45
2024-05-09T21:08:58.839Z,10.45
2024-05-09T21:14:01.669Z,10.44
2024-05-09T21:19:05.316Z,10.43
2024-05-09T21:24:09.206Z,10.46
2024-05-09T21:29:12.522Z,10.47
2024-05-09T21:34:15.726Z,10.44
2024-05-09T21:39:18.857Z,10.49
2024-05-09T21:44:22.498Z,10.52
2024-05-09T21:49:26.056Z,10.45
2024-05-09T21:54:30.815Z,10.33
2024-05-09T21:59:34.341Z,10.28
2024-05-09T22:04:37.601Z,10.27
2024-05-09T22:09:45.729Z,10.31
2024-05-09T22:14:48.736Z,10.28
2024-05-09T22:19:51.954Z,10.40
2024-05-09T22:24:55.910Z,10.43
2024-05-09T22:29:58.925Z,10.49
2024-05-09T22:35:02.294Z,10.46
2024-05-09T22:40:14.862Z,10.40
2024-05-09T22:45:20.646Z,10.21
2024-05-09T22:50:27.056Z,10.58
2024-05-09T22:55:35.413Z,10.79
2024-05-09T23:00:38.575Z,10.84
2024-05-09T23:05:42.172Z,10.89
2024-05-09T23:10:45.193Z,10.92
2024-05-09T23:15:49.070Z,11.01
2024-05-09T23:20:53.074Z,11.08
2024-05-09T23:25:56.107Z,11.21
2024-05-09T23:30:59.598Z,11.35
2024-05-09T23:36:03.180Z,11.48
2024-05-09T23:41:07.103Z,11.63
2024-05-09T23:46:11.308Z,11.77
2024-05-09T23:51:15.804Z,11.83
2024-05-09T23:56:21.520Z,11.85
